Terminal Aerodrome Forecast
Issued by NWS

Home | Current Version | Previous Version | Text Only | Print | Product List | Glossary On
Versions: 1 2 3 4 5 6 7 8 9 10 11 12 13 14 15 16 17 18 19 20 21
000
FTUS43 KAPX 062338
TAFPLN
TAF
KPLN 062338Z 0700/0724 VRB05KT P6SM FEW250
     FM070600 19006KT P6SM VCTS SCT090CB BKN250
     FM070800 25005KT P6SM VCTS SCT050CB BKN110
     FM071100 31013KT P6SM VCSH SCT025 OVC045
     FM071300 33015G25KT P6SM VCSH SCT015 BKN025
     FM071500 33018G28KT P6SM SCT250=

USA.gov is the U.S. government's official web portal to all federal, state and local government web resources and services.